sensor_id;sensor_type;location;lat;lon;timestamp;temperature;humidity
44886;DHT22;36669;51.428;21.162;2022-10-18T00:02:17;14.30;99.90
44886;DHT22;36669;51.428;21.162;2022-10-18T00:04:45;14.30;99.90
44886;DHT22;36669;51.428;21.162;2022-10-18T00:07:11;14.20;99.90
44886;DHT22;36669;51.428;21.162;2022-10-18T00:09:38;14.20;99.90
44886;DHT22;36669;51.428;21.162;2022-10-18T00:12:04;14.30;99.90
44886;DHT22;36669;51.428;21.162;2022-10-18T00:14:30;14.30;99.90
44886;DHT22;36669;51.428;21.162;2022-10-18T00:16:57;14.30;99.90
44886;DHT22;36669;51.428;21.162;2022-10-18T00:19:24;14.30;99.90
44886;DHT22;36669;51.428;21.162;2022-10-18T00:21:50;14.30;99.90
44886;DHT22;36669;51.428;21.162;2022-10-18T00:24:16;14.30;99.90
44886;DHT22;36669;51.428;21.162;2022-10-18T00:26:43;14.40;99.90
44886;DHT22;36669;51.428;21.162;2022-10-18T00:29:13;14.40;99.90
44886;DHT22;36669;51.428;21.162;2022-10-18T00:31:41;14.40;99.90
44886;DHT22;36669;51.428;21.162;2022-10-18T00:34:11;14.40;99.90
44886;DHT22;36669;51.428;21.162;2022-10-18T00:36:38;14.50;99.90
44886;DHT22;36669;51.428;21.162;2022-10-18T00:39:06;14.50;99.90
44886;DHT22;36669;51.428;21.162;2022-10-18T00:41:34;14.40;99.90
44886;DHT22;36669;51.428;21.162;2022-10-18T00:46:44;14.30;99.90
44886;DHT22;36669;51.428;21.162;2022-10-18T00:49:52;14.10;99.90
44886;DHT22;36669;51.428;21.162;2022-10-18T00:52:27;13.80;99.90
44886;DHT22;36669;51.428;21.162;2022-10-18T00:54:58;13.50;99.90
44886;DHT22;36669;51.428;21.162;2022-10-18T00:57:26;13.30;99.90
44886;DHT22;36669;51.428;21.162;2022-10-18T00:59:53;13.10;99.90
44886;DHT22;36669;51.428;21.162;2022-10-18T01:02:21;12.90;99.90
44886;DHT22;36669;51.428;21.162;2022-10-18T01:04:47;12.80;99.90
44886;DHT22;36669;51.428;21.162;2022-10-18T01:10:08;12.60;99.90
44886;DHT22;36669;51.428;21.162;2022-10-18T01:18:48;12.30;99.90
44886;DHT22;36669;51.428;21.162;2022-10-18T01:24:36;12.10;99.90
44886;DHT22;36669;51.428;21.162;2022-10-18T01:32:58;12.00;99.90
44886;DHT22;36669;51.428;21.162;2022-10-18T01:35:34;12.00;99.90
44886;DHT22;36669;51.428;21.162;2022-10-18T01:38:05;12.00;99.90
44886;DHT22;36669;51.428;21.162;2022-10-18T01:40:35;11.90;99.90
44886;DHT22;36669;51.428;21.162;2022-10-18T01:43:03;11.90;99.90
44886;DHT22;36669;51.428;21.162;2022-10-18T01:45:31;11.70;99.90
44886;DHT22;36669;51.428;21.162;2022-10-18T01:47:59;11.60;99.90
44886;DHT22;36669;51.428;21.162;2022-10-18T01:50:31;11.50;99.90
44886;DHT22;36669;51.428;21.162;2022-10-18T01:52:57;11.40;99.90
44886;DHT22;36669;51.428;21.162;2022-10-18T01:55:43;11.40;99.90
44886;DHT22;36669;51.428;21.162;2022-10-18T01:58:21;11.50;99.90
44886;DHT22;36669;51.428;21.162;2022-10-18T02:01:07;11.40;99.90
44886;DHT22;36669;51.428;21.162;2022-10-18T02:03:43;11.30;99.90
44886;DHT22;36669;51.428;21.162;2022-10-18T02:06:39;11.30;99.90
44886;DHT22;36669;51.428;21.162;2022-10-18T02:09:24;11.10;99.90
44886;DHT22;36669;51.428;21.162;2022-10-18T02:11:55;11.00;99.90
44886;DHT22;36669;51.428;21.162;2022-10-18T02:14:25;10.90;99.90
44886;DHT22;36669;51.428;21.162;2022-10-18T02:16:55;10.90;99.90
44886;DHT22;36669;51.428;21.162;2022-10-18T02:19:32;10.90;99.90
44886;DHT22;36669;51.428;21.162;2022-10-18T02:22:00;11.00;99.90
44886;DHT22;36669;51.428;21.162;2022-10-18T02:24:33;10.90;99.90
44886;DHT22;36669;51.428;21.162;2022-10-18T02:27:01;10.80;99.90
44886;DHT22;36669;51.428;21.162;2022-10-18T02:29:29;10.70;99.90
44886;DHT22;36669;51.428;21.162;2022-10-18T02:32:17;10.70;99.90
44886;DHT22;36669;51.428;21.162;2022-10-18T02:34:51;10.60;99.90
44886;DHT22;36669;51.428;21.162;2022-10-18T02:37:27;10.80;99.90
44886;DHT22;36669;51.428;21.162;2022-10-18T02:39:56;10.80;99.90
44886;DHT22;36669;51.428;21.162;2022-10-18T02:42:22;10.70;99.90
44886;DHT22;36669;51.428;21.162;2022-10-18T02:44:49;10.60;99.90
44886;DHT22;36669;51.428;21.162;2022-10-18T02:47:16;10.60;99.90
44886;DHT22;36669;51.428;21.162;2022-10-18T02:49:44;10.70;99.90
44886;DHT22;36669;51.428;21.162;2022-10-18T02:52:11;10.60;99.90
44886;DHT22;36669;51.428;21.162;2022-10-18T02:54:38;10.70;99.90
44886;DHT22;36669;51.428;21.162;2022-10-18T02:57:05;10.80;99.90
44886;DHT22;36669;51.428;21.162;2022-10-18T02:59:31;10.80;99.90
44886;DHT22;36669;51.428;21.162;2022-10-18T03:01:58;10.80;99.90
44886;DHT22;36669;51.428;21.162;2022-10-18T03:04:25;10.90;99.90
44886;DHT22;36669;51.428;21.162;2022-10-18T03:06:52;11.00;99.90
44886;DHT22;36669;51.428;21.162;2022-10-18T03:09:19;11.30;99.90
44886;DHT22;36669;51.428;21.162;2022-10-18T03:11:46;11.40;99.90
44886;DHT22;36669;51.428;21.162;2022-10-18T03:14:12;11.70;99.90
44886;DHT22;36669;51.428;21.162;2022-10-18T03:16:37;11.90;99.90
44886;DHT22;36669;51.428;21.162;2022-10-18T03:19:03;12.20;99.90
44886;DHT22;36669;51.428;21.162;2022-10-18T03:21:28;12.50;99.90
44886;DHT22;36669;51.428;21.162;2022-10-18T03:23:55;12.60;99.90
44886;DHT22;36669;51.428;21.162;2022-10-18T03:26:22;12.80;99.90
44886;DHT22;36669;51.428;21.162;2022-10-18T03:28:49;13.00;99.90
44886;DHT22;36669;51.428;21.162;2022-10-18T03:31:15;13.00;99.90
44886;DHT22;36669;51.428;21.162;2022-10-18T03:33:42;13.00;99.90
44886;DHT22;36669;51.428;21.162;2022-10-18T03:36:09;13.20;99.90
44886;DHT22;36669;51.428;21.162;2022-10-18T03:38:36;13.40;99.90
44886;DHT22;36669;51.428;21.162;2022-10-18T03:41:03;13.50;99.90
44886;DHT22;36669;51.428;21.162;2022-10-18T03:43:29;13.60;99.90
44886;DHT22;36669;51.428;21.162;2022-10-18T03:45:57;13.70;99.90
44886;DHT22;36669;51.428;21.162;2022-10-18T03:48:24;13.80;99.90
44886;DHT22;36669;51.428;21.162;2022-10-18T03:50:50;13.90;99.90
44886;DHT22;36669;51.428;21.162;2022-10-18T03:53:17;13.90;99.90
44886;DHT22;36669;51.428;21.162;2022-10-18T03:55:48;13.90;99.90
44886;DHT22;36669;51.428;21.162;2022-10-18T03:58:15;13.90;99.90
44886;DHT22;36669;51.428;21.162;2022-10-18T04:00:42;13.90;99.90
44886;DHT22;36669;51.428;21.162;2022-10-18T04:03:09;13.90;99.90
44886;DHT22;36669;51.428;21.162;2022-10-18T04:05:35;13.80;99.90
44886;DHT22;36669;51.428;21.162;2022-10-18T04:08:02;13.90;99.90
44886;DHT22;36669;51.428;21.162;2022-10-18T04:10:28;13.90;99.90
44886;DHT22;36669;51.428;21.162;2022-10-18T04:12:55;13.90;99.90
44886;DHT22;36669;51.428;21.162;2022-10-18T04:15:22;13.90;99.90
44886;DHT22;36669;51.428;21.162;2022-10-18T04:17:48;14.00;99.90
44886;DHT22;36669;51.428;21.162;2022-10-18T04:20:15;14.00;99.90
44886;DHT22;36669;51.428;21.162;2022-10-18T04:22:42;14.00;99.90
44886;DHT22;36669;51.428;21.162;2022-10-18T04:25:09;14.00;99.90
44886;DHT22;36669;51.428;21.162;2022-10-18T04:27:37;14.00;99.90
44886;DHT22;36669;51.428;21.162;2022-10-18T04:30:05;14.00;99.90
44886;DHT22;36669;51.428;21.162;2022-10-18T04:32:32;14.00;99.90
44886;DHT22;36669;51.428;21.162;2022-10-18T04:34:58;14.10;99.90
44886;DHT22;36669;51.428;21.162;2022-10-18T04:37:25;14.00;99.90
44886;DHT22;36669;51.428;21.162;2022-10-18T04:39:52;14.00;99.90
44886;DHT22;36669;51.428;21.162;2022-10-18T04:42:19;14.10;99.90
44886;DHT22;36669;51.428;21.162;2022-10-18T04:44:46;14.10;99.90
44886;DHT22;36669;51.428;21.162;2022-10-18T04:47:13;14.10;99.90
44886;DHT22;36669;51.428;21.162;2022-10-18T04:49:39;14.10;99.90
44886;DHT22;36669;51.428;21.162;2022-10-18T04:52:06;14.10;99.90
44886;DHT22;36669;51.428;21.162;2022-10-18T04:54:34;14.10;99.90
44886;DHT22;36669;51.428;21.162;2022-10-18T04:57:00;14.10;99.90
44886;DHT22;36669;51.428;21.162;2022-10-18T04:59:27;14.00;99.90
44886;DHT22;36669;51.428;21.162;2022-10-18T05:01:54;14.00;99.90
44886;DHT22;36669;51.428;21.162;2022-10-18T05:04:21;14.00;99.90
44886;DHT22;36669;51.428;21.162;2022-10-18T05:06:49;14.00;99.90
44886;DHT22;36669;51.428;21.162;2022-10-18T05:09:16;14.00;99.90
44886;DHT22;36669;51.428;21.162;2022-10-18T05:11:43;14.00;99.90
44886;DHT22;36669;51.428;21.162;2022-10-18T05:14:10;14.00;99.90
44886;DHT22;36669;51.428;21.162;2022-10-18T05:16:36;14.10;99.90
44886;DHT22;36669;51.428;21.162;2022-10-18T05:19:04;14.10;99.90
44886;DHT22;36669;51.428;21.162;2022-10-18T05:21:32;14.10;99.90
44886;DHT22;36669;51.428;21.162;2022-10-18T05:23:59;14.00;99.90
44886;DHT22;36669;51.428;21.162;2022-10-18T05:26:24;14.10;99.90
44886;DHT22;36669;51.428;21.162;2022-10-18T05:28:50;14.10;99.90
44886;DHT22;36669;51.428;21.162;2022-10-18T05:31:16;14.00;99.90
44886;DHT22;36669;51.428;21.162;2022-10-18T05:33:42;14.10;99.90
44886;DHT22;36669;51.428;21.162;2022-10-18T05:36:09;14.10;99.90
44886;DHT22;36669;51.428;21.162;2022-10-18T05:38:40;14.10;99.90
44886;DHT22;36669;51.428;21.162;2022-10-18T05:41:07;14.10;99.90
44886;DHT22;36669;51.428;21.162;2022-10-18T05:43:35;14.20;99.90
44886;DHT22;36669;51.428;21.162;2022-10-18T05:46:05;14.30;99.90
44886;DHT22;36669;51.428;21.162;2022-10-18T05:48:31;14.30;99.90
44886;DHT22;36669;51.428;21.162;2022-10-18T05:50:58;14.40;99.90
44886;DHT22;36669;51.428;21.162;2022-10-18T05:53:25;14.40;99.90
44886;DHT22;36669;51.428;21.162;2022-10-18T05:55:52;14.40;99.90
44886;DHT22;36669;51.428;21.162;2022-10-18T05:58:19;14.40;99.90
44886;DHT22;36669;51.428;21.162;2022-10-18T06:00:44;14.50;99.90
44886;DHT22;36669;51.428;21.162;2022-10-18T06:03:10;14.50;99.90
44886;DHT22;36669;51.428;21.162;2022-10-18T06:05:35;14.50;99.90
44886;DHT22;36669;51.428;21.162;2022-10-18T06:08:01;14.50;99.90
44886;DHT22;36669;51.428;21.162;2022-10-18T06:10:26;14.50;99.90
44886;DHT22;36669;51.428;21.162;2022-10-18T06:12:52;14.60;99.90
44886;DHT22;36669;51.428;21.162;2022-10-18T06:15:17;14.70;99.90
44886;DHT22;36669;51.428;21.162;2022-10-18T06:17:43;14.70;99.90
44886;DHT22;36669;51.428;21.162;2022-10-18T06:20:09;14.70;99.90
44886;DHT22;36669;51.428;21.162;2022-10-18T06:22:36;14.70;99.90
44886;DHT22;36669;51.428;21.162;2022-10-18T06:25:01;14.70;99.90
44886;DHT22;36669;51.428;21.162;2022-10-18T06:27:27;14.80;99.90
44886;DHT22;36669;51.428;21.162;2022-10-18T06:29:52;14.80;99.90
44886;DHT22;36669;51.428;21.162;2022-10-18T06:32:18;14.80;99.90
44886;DHT22;36669;51.428;21.162;2022-10-18T06:34:43;14.90;99.90
44886;DHT22;36669;51.428;21.162;2022-10-18T06:37:09;15.00;99.90
44886;DHT22;36669;51.428;21.162;2022-10-18T06:39:34;15.10;99.90
44886;DHT22;36669;51.428;21.162;2022-10-18T06:42:00;15.20;99.90
44886;DHT22;36669;51.428;21.162;2022-10-18T06:44:25;15.30;99.90
44886;DHT22;36669;51.428;21.162;2022-10-18T06:46:52;15.40;99.90
44886;DHT22;36669;51.428;21.162;2022-10-18T06:49:19;15.50;99.90
44886;DHT22;36669;51.428;21.162;2022-10-18T06:51:44;15.60;99.90
44886;DHT22;36669;51.428;21.162;2022-10-18T06:54:10;15.70;99.90
44886;DHT22;36669;51.428;21.162;2022-10-18T06:56:36;15.80;99.90
44886;DHT22;36669;51.428;21.162;2022-10-18T06:59:01;15.90;99.90
44886;DHT22;36669;51.428;21.162;2022-10-18T07:01:27;16.00;99.90
44886;DHT22;36669;51.428;21.162;2022-10-18T07:03:53;16.10;99.90
44886;DHT22;36669;51.428;21.162;2022-10-18T07:06:20;16.30;99.90
44886;DHT22;36669;51.428;21.162;2022-10-18T07:08:47;16.40;99.90
44886;DHT22;36669;51.428;21.162;2022-10-18T07:11:18;16.60;99.90
44886;DHT22;36669;51.428;21.162;2022-10-18T07:13:45;16.60;99.90
44886;DHT22;36669;51.428;21.162;2022-10-18T07:16:13;16.70;99.90
44886;DHT22;36669;51.428;21.162;2022-10-18T07:18:44;16.90;99.90
44886;DHT22;36669;51.428;21.162;2022-10-18T07:21:13;16.90;99.90
44886;DHT22;36669;51.428;21.162;2022-10-18T07:23:41;17.00;99.90
44886;DHT22;36669;51.428;21.162;2022-10-18T07:28:54;17.20;99.90
44886;DHT22;36669;51.428;21.162;2022-10-18T07:31:21;17.20;99.90
44886;DHT22;36669;51.428;21.162;2022-10-18T07:33:48;17.30;99.90
44886;DHT22;36669;51.428;21.162;2022-10-18T07:36:16;17.30;99.90
44886;DHT22;36669;51.428;21.162;2022-10-18T07:38:41;17.50;99.90
44886;DHT22;36669;51.428;21.162;2022-10-18T07:41:10;17.50;99.90
44886;DHT22;36669;51.428;21.162;2022-10-18T07:43:44;17.50;99.90
44886;DHT22;36669;51.428;21.162;2022-10-18T07:46:12;17.60;99.90
44886;DHT22;36669;51.428;21.162;2022-10-18T07:48:39;17.40;99.90
44886;DHT22;36669;51.428;21.162;2022-10-18T07:51:06;17.50;99.90
44886;DHT22;36669;51.428;21.162;2022-10-18T07:53:33;17.50;99.90
44886;DHT22;36669;51.428;21.162;2022-10-18T07:56:05;17.50;99.90
44886;DHT22;36669;51.428;21.162;2022-10-18T07:58:47;17.40;99.90
44886;DHT22;36669;51.428;21.162;2022-10-18T08:01:14;17.60;99.90
44886;DHT22;36669;51.428;21.162;2022-10-18T08:03:42;17.60;99.90
44886;DHT22;36669;51.428;21.162;2022-10-18T08:06:10;17.70;99.90
44886;DHT22;36669;51.428;21.162;2022-10-18T08:08:57;17.60;99.90
44886;DHT22;36669;51.428;21.162;2022-10-18T08:11:24;17.70;99.90
44886;DHT22;36669;51.428;21.162;2022-10-18T08:13:52;17.70;99.90
44886;DHT22;36669;51.428;21.162;2022-10-18T08:16:22;17.60;99.90
44886;DHT22;36669;51.428;21.162;2022-10-18T08:18:49;17.70;99.90
44886;DHT22;36669;51.428;21.162;2022-10-18T08:21:17;17.80;99.90
44886;DHT22;36669;51.428;21.162;2022-10-18T08:23:44;17.80;99.90
44886;DHT22;36669;51.428;21.162;2022-10-18T08:26:14;17.70;99.90
44886;DHT22;36669;51.428;21.162;2022-10-18T08:28:42;17.70;99.90
44886;DHT22;36669;51.428;21.162;2022-10-18T08:31:12;17.90;99.90
44886;DHT22;36669;51.428;21.162;2022-10-18T08:33:40;17.90;99.90
44886;DHT22;36669;51.428;21.162;2022-10-18T08:36:09;17.90;99.90
44886;DHT22;36669;51.428;21.162;2022-10-18T08:38:40;17.90;99.90
44886;DHT22;36669;51.428;21.162;2022-10-18T08:44:26;18.00;99.90
44886;DHT22;36669;51.428;21.162;2022-10-18T08:47:09;18.10;99.90
44886;DHT22;36669;51.428;21.162;2022-10-18T08:49:52;18.00;99.90
44886;DHT22;36669;51.428;21.162;2022-10-18T08:55:41;18.20;99.90
44886;DHT22;36669;51.428;21.162;2022-10-18T08:58:21;18.10;99.90
44886;DHT22;36669;51.428;21.162;2022-10-18T09:15:50;18.10;99.90
44886;DHT22;36669;51.428;21.162;2022-10-18T09:21:53;18.10;99.90
44886;DHT22;36669;51.428;21.162;2022-10-18T09:24:40;18.30;99.90
44886;DHT22;36669;51.428;21.162;2022-10-18T09:27:17;18.40;99.90
44886;DHT22;36669;51.428;21.162;2022-10-18T09:33:00;18.40;99.90
44886;DHT22;36669;51.428;21.162;2022-10-18T09:35:51;18.30;99.90
44886;DHT22;36669;51.428;21.162;2022-10-18T09:38:21;18.50;99.90
44886;DHT22;36669;51.428;21.162;2022-10-18T09:43:30;18.80;99.90
44886;DHT22;36669;51.428;21.162;2022-10-18T09:45:59;18.70;99.90
44886;DHT22;36669;51.428;21.162;2022-10-18T09:48:45;18.90;99.90
44886;DHT22;36669;51.428;21.162;2022-10-18T09:51:19;19.00;99.90
44886;DHT22;36669;51.428;21.162;2022-10-18T09:59:42;18.70;99.90
44886;DHT22;36669;51.428;21.162;2022-10-18T10:02:19;18.80;99.90
44886;DHT22;36669;51.428;21.162;2022-10-18T10:04:45;18.90;99.90
44886;DHT22;36669;51.428;21.162;2022-10-18T10:07:33;19.10;99.90
44886;DHT22;36669;51.428;21.162;2022-10-18T10:12:31;19.70;99.90
44886;DHT22;36669;51.428;21.162;2022-10-18T10:15:26;19.80;99.90
44886;DHT22;36669;51.428;21.162;2022-10-18T10:18:06;19.90;99.90
44886;DHT22;36669;51.428;21.162;2022-10-18T10:20:49;20.00;99.90
44886;DHT22;36669;51.428;21.162;2022-10-18T10:23:36;19.90;99.90
44886;DHT22;36669;51.428;21.162;2022-10-18T10:26:33;20.10;99.90
44886;DHT22;36669;51.428;21.162;2022-10-18T10:29:01;20.00;99.90
44886;DHT22;36669;51.428;21.162;2022-10-18T10:31:30;20.20;99.90
44886;DHT22;36669;51.428;21.162;2022-10-18T10:34:03;20.00;99.90
44886;DHT22;36669;51.428;21.162;2022-10-18T10:36:31;20.30;99.90
44886;DHT22;36669;51.428;21.162;2022-10-18T10:39:08;20.70;99.90
44886;DHT22;36669;51.428;21.162;2022-10-18T10:41:35;20.60;99.90
44886;DHT22;36669;51.428;21.162;2022-10-18T10:44:04;20.60;99.90
44886;DHT22;36669;51.428;21.162;2022-10-18T10:46:39;20.40;99.90
44886;DHT22;36669;51.428;21.162;2022-10-18T10:49:20;20.40;99.90
44886;DHT22;36669;51.428;21.162;2022-10-18T10:51:53;20.60;99.90
44886;DHT22;36669;51.428;21.162;2022-10-18T10:54:21;20.20;99.90
44886;DHT22;36669;51.428;21.162;2022-10-18T10:56:59;20.50;99.90
44886;DHT22;36669;51.428;21.162;2022-10-18T10:59:39;21.00;99.90
44886;DHT22;36669;51.428;21.162;2022-10-18T11:02:18;21.50;99.90
44886;DHT22;36669;51.428;21.162;2022-10-18T11:04:46;21.90;99.90
44886;DHT22;36669;51.428;21.162;2022-10-18T11:12:37;22.30;99.90
44886;DHT22;36669;51.428;21.162;2022-10-18T11:20:44;22.20;99.90
44886;DHT22;36669;51.428;21.162;2022-10-18T11:23:14;22.20;99.90
44886;DHT22;36669;51.428;21.162;2022-10-18T11:32:16;22.30;99.90
44886;DHT22;36669;51.428;21.162;2022-10-18T12:00:32;21.60;99.90
44886;DHT22;36669;51.428;21.162;2022-10-18T12:06:10;21.80;99.90
44886;DHT22;36669;51.428;21.162;2022-10-18T12:08:38;21.30;99.90
44886;DHT22;36669;51.428;21.162;2022-10-18T12:11:29;21.80;99.90
44886;DHT22;36669;51.428;21.162;2022-10-18T12:14:00;21.90;99.90
44886;DHT22;36669;51.428;21.162;2022-10-18T12:16:34;22.00;99.90
44886;DHT22;36669;51.428;21.162;2022-10-18T12:19:11;22.50;99.90
44886;DHT22;36669;51.428;21.162;2022-10-18T12:21:39;21.90;99.90
44886;DHT22;36669;51.428;21.162;2022-10-18T12:24:20;21.70;99.90
44886;DHT22;36669;51.428;21.162;2022-10-18T12:26:50;22.00;99.90
44886;DHT22;36669;51.428;21.162;2022-10-18T12:29:54;21.30;99.90
44886;DHT22;36669;51.428;21.162;2022-10-18T12:32:33;21.30;99.90
44886;DHT22;36669;51.428;21.162;2022-10-18T12:35:11;22.00;99.90
44886;DHT22;36669;51.428;21.162;2022-10-18T12:40:48;22.00;99.90
44886;DHT22;36669;51.428;21.162;2022-10-18T12:43:28;22.70;99.90
44886;DHT22;36669;51.428;21.162;2022-10-18T12:45:59;23.00;99.90
44886;DHT22;36669;51.428;21.162;2022-10-18T12:48:43;22.40;99.90
44886;DHT22;36669;51.428;21.162;2022-10-18T12:51:20;22.30;99.90
44886;DHT22;36669;51.428;21.162;2022-10-18T12:54:10;22.20;99.90
44886;DHT22;36669;51.428;21.162;2022-10-18T12:56:41;22.20;99.90
44886;DHT22;36669;51.428;21.162;2022-10-18T13:04:34;22.10;99.90
44886;DHT22;36669;51.428;21.162;2022-10-18T13:13:13;22.40;99.90
44886;DHT22;36669;51.428;21.162;2022-10-18T13:15:55;22.70;99.90
44886;DHT22;36669;51.428;21.162;2022-10-18T13:19:00;22.80;99.90
44886;DHT22;36669;51.428;21.162;2022-10-18T13:24:58;23.00;99.90
44886;DHT22;36669;51.428;21.162;2022-10-18T13:27:43;23.00;99.90
44886;DHT22;36669;51.428;21.162;2022-10-18T13:35:43;23.20;99.90
44886;DHT22;36669;51.428;21.162;2022-10-18T13:39:01;22.40;99.90
44886;DHT22;36669;51.428;21.162;2022-10-18T13:44:31;22.60;99.90
44886;DHT22;36669;51.428;21.162;2022-10-18T13:50:22;22.70;99.90
44886;DHT22;36669;51.428;21.162;2022-10-18T13:53:17;23.30;99.90
44886;DHT22;36669;51.428;21.162;2022-10-18T13:56:16;23.00;99.90
44886;DHT22;36669;51.428;21.162;2022-10-18T14:07:59;22.20;99.90
44886;DHT22;36669;51.428;21.162;2022-10-18T14:13:27;22.40;99.90
44886;DHT22;36669;51.428;21.162;2022-10-18T14:16:00;22.80;99.90
44886;DHT22;36669;51.428;21.162;2022-10-18T14:18:35;22.60;99.90
44886;DHT22;36669;51.428;21.162;2022-10-18T14:21:03;22.70;99.90
44886;DHT22;36669;51.428;21.162;2022-10-18T14:23:47;22.70;99.90
44886;DHT22;36669;51.428;21.162;2022-10-18T14:26:16;22.40;99.90
44886;DHT22;36669;51.428;21.162;2022-10-18T14:28:43;22.10;99.90
44886;DHT22;36669;51.428;21.162;2022-10-18T14:31:14;22.40;99.90
44886;DHT22;36669;51.428;21.162;2022-10-18T14:33:43;22.50;99.90
44886;DHT22;36669;51.428;21.162;2022-10-18T14:38:56;22.30;99.90
44886;DHT22;36669;51.428;21.162;2022-10-18T14:41:31;22.40;99.90
44886;DHT22;36669;51.428;21.162;2022-10-18T14:46:45;21.90;99.90
44886;DHT22;36669;51.428;21.162;2022-10-18T14:49:14;22.00;99.90
44886;DHT22;36669;51.428;21.162;2022-10-18T14:51:42;21.60;99.90
44886;DHT22;36669;51.428;21.162;2022-10-18T14:54:23;21.30;99.90
44886;DHT22;36669;51.428;21.162;2022-10-18T14:56:51;20.80;99.90
44886;DHT22;36669;51.428;21.162;2022-10-18T14:59:24;20.70;99.90
44886;DHT22;36669;51.428;21.162;2022-10-18T15:02:02;20.50;99.90
44886;DHT22;36669;51.428;21.162;2022-10-18T15:04:28;20.40;99.90
44886;DHT22;36669;51.428;21.162;2022-10-18T15:06:56;20.30;99.90
44886;DHT22;36669;51.428;21.162;2022-10-18T15:09:22;20.10;99.90
44886;DHT22;36669;51.428;21.162;2022-10-18T15:11:50;20.10;99.90
44886;DHT22;36669;51.428;21.162;2022-10-18T15:14:18;20.10;99.90
44886;DHT22;36669;51.428;21.162;2022-10-18T15:16:45;20.10;99.90
44886;DHT22;36669;51.428;21.162;2022-10-18T15:19:37;19.90;99.90
44886;DHT22;36669;51.428;21.162;2022-10-18T15:22:07;19.80;99.90
44886;DHT22;36669;51.428;21.162;2022-10-18T15:24:38;19.70;99.90
44886;DHT22;36669;51.428;21.162;2022-10-18T15:27:25;19.60;99.90
44886;DHT22;36669;51.428;21.162;2022-10-18T15:29:54;19.40;99.90
44886;DHT22;36669;51.428;21.162;2022-10-18T15:32:31;19.30;99.90
44886;DHT22;36669;51.428;21.162;2022-10-18T15:35:15;19.20;99.90
44886;DHT22;36669;51.428;21.162;2022-10-18T15:37:43;19.20;99.90
44886;DHT22;36669;51.428;21.162;2022-10-18T15:42:55;19.10;99.90
44886;DHT22;36669;51.428;21.162;2022-10-18T15:45:37;19.00;99.90
44886;DHT22;36669;51.428;21.162;2022-10-18T15:50:41;18.90;99.90
44886;DHT22;36669;51.428;21.162;2022-10-18T15:58:48;18.70;99.90
44886;DHT22;36669;51.428;21.162;2022-10-18T16:01:42;18.70;99.90
44886;DHT22;36669;51.428;21.162;2022-10-18T16:04:32;18.60;99.90
44886;DHT22;36669;51.428;21.162;2022-10-18T16:06:59;18.60;99.90
44886;DHT22;36669;51.428;21.162;2022-10-18T16:09:27;18.50;99.90
44886;DHT22;36669;51.428;21.162;2022-10-18T16:11:55;18.50;99.90
44886;DHT22;36669;51.428;21.162;2022-10-18T16:14:22;18.50;99.90
44886;DHT22;36669;51.428;21.162;2022-10-18T16:16:51;18.50;99.90
44886;DHT22;36669;51.428;21.162;2022-10-18T16:19:19;18.40;99.90
44886;DHT22;36669;51.428;21.162;2022-10-18T16:21:53;18.40;99.90
44886;DHT22;36669;51.428;21.162;2022-10-18T16:24:20;18.40;99.90
44886;DHT22;36669;51.428;21.162;2022-10-18T16:26:47;18.40;99.90
44886;DHT22;36669;51.428;21.162;2022-10-18T16:29:19;18.40;99.90
44886;DHT22;36669;51.428;21.162;2022-10-18T16:31:46;18.40;99.90
44886;DHT22;36669;51.428;21.162;2022-10-18T16:34:13;18.40;99.90
44886;DHT22;36669;51.428;21.162;2022-10-18T16:36:42;18.40;99.90
44886;DHT22;36669;51.428;21.162;2022-10-18T16:39:14;18.30;99.90
44886;DHT22;36669;51.428;21.162;2022-10-18T16:41:42;18.30;99.90
44886;DHT22;36669;51.428;21.162;2022-10-18T16:44:08;18.30;99.90
44886;DHT22;36669;51.428;21.162;2022-10-18T16:46:34;18.30;99.90
44886;DHT22;36669;51.428;21.162;2022-10-18T16:49:02;18.30;99.90
44886;DHT22;36669;51.428;21.162;2022-10-18T16:51:30;18.30;99.90
44886;DHT22;36669;51.428;21.162;2022-10-18T16:53:57;18.30;99.90
44886;DHT22;36669;51.428;21.162;2022-10-18T16:56:30;18.20;99.90
44886;DHT22;36669;51.428;21.162;2022-10-18T16:58:58;18.20;99.90
44886;DHT22;36669;51.428;21.162;2022-10-18T17:01:24;18.20;99.90
44886;DHT22;36669;51.428;21.162;2022-10-18T17:03:51;18.10;99.90
44886;DHT22;36669;51.428;21.162;2022-10-18T17:06:23;18.10;99.90
44886;DHT22;36669;51.428;21.162;2022-10-18T17:08:51;18.10;99.90
44886;DHT22;36669;51.428;21.162;2022-10-18T17:11:19;18.10;99.90
44886;DHT22;36669;51.428;21.162;2022-10-18T17:13:46;18.10;99.90
44886;DHT22;36669;51.428;21.162;2022-10-18T17:16:31;18.10;99.90
44886;DHT22;36669;51.428;21.162;2022-10-18T17:19:00;18.10;99.90
44886;DHT22;36669;51.428;21.162;2022-10-18T17:21:29;18.10;99.90
44886;DHT22;36669;51.428;21.162;2022-10-18T17:23:55;18.10;99.90
44886;DHT22;36669;51.428;21.162;2022-10-18T17:26:22;18.10;99.90
44886;DHT22;36669;51.428;21.162;2022-10-18T17:28:55;18.10;99.90
44886;DHT22;36669;51.428;21.162;2022-10-18T17:31:21;18.10;99.90
44886;DHT22;36669;51.428;21.162;2022-10-18T17:33:47;18.10;99.90
44886;DHT22;36669;51.428;21.162;2022-10-18T17:36:12;18.10;99.90
44886;DHT22;36669;51.428;21.162;2022-10-18T17:38:38;18.00;99.90
44886;DHT22;36669;51.428;21.162;2022-10-18T17:41:10;18.00;99.90
44886;DHT22;36669;51.428;21.162;2022-10-18T17:43:37;17.90;99.90
44886;DHT22;36669;51.428;21.162;2022-10-18T17:46:03;17.80;99.90
44886;DHT22;36669;51.428;21.162;2022-10-18T17:48:29;17.80;99.90
44886;DHT22;36669;51.428;21.162;2022-10-18T17:50:55;17.70;99.90
44886;DHT22;36669;51.428;21.162;2022-10-18T17:53:20;17.80;99.90
44886;DHT22;36669;51.428;21.162;2022-10-18T17:55:46;17.70;99.90
44886;DHT22;36669;51.428;21.162;2022-10-18T17:58:11;17.70;99.90
44886;DHT22;36669;51.428;21.162;2022-10-18T18:00:37;17.80;99.90
44886;DHT22;36669;51.428;21.162;2022-10-18T18:03:02;17.80;99.90
44886;DHT22;36669;51.428;21.162;2022-10-18T18:05:33;17.60;99.90
44886;DHT22;36669;51.428;21.162;2022-10-18T18:07:58;17.40;99.90
44886;DHT22;36669;51.428;21.162;2022-10-18T18:10:25;17.10;99.90
44886;DHT22;36669;51.428;21.162;2022-10-18T18:12:52;17.00;99.90
44886;DHT22;36669;51.428;21.162;2022-10-18T18:15:18;16.70;99.90
44886;DHT22;36669;51.428;21.162;2022-10-18T18:17:43;16.30;99.90
44886;DHT22;36669;51.428;21.162;2022-10-18T18:20:09;16.00;99.90
44886;DHT22;36669;51.428;21.162;2022-10-18T18:22:35;15.70;99.90
44886;DHT22;36669;51.428;21.162;2022-10-18T18:25:00;15.50;99.90